sensor_id;sensor_type;location;lat;lon;timestamp;temperature;humidity
63260;DHT22;49390;51.380;0.098;2023-07-16T00:01:35;16.70;99.90
63260;DHT22;49390;51.380;0.098;2023-07-16T00:04:04;16.70;99.90
63260;DHT22;49390;51.380;0.098;2023-07-16T00:06:32;16.70;99.90
63260;DHT22;49390;51.380;0.098;2023-07-16T00:09:00;16.70;99.90
63260;DHT22;49390;51.380;0.098;2023-07-16T00:11:28;16.70;99.90
63260;DHT22;49390;51.380;0.098;2023-07-16T00:13:56;16.60;99.90
63260;DHT22;49390;51.380;0.098;2023-07-16T00:16:24;16.70;99.90
63260;DHT22;49390;51.380;0.098;2023-07-16T00:18:52;16.60;99.90
63260;DHT22;49390;51.380;0.098;2023-07-16T00:21:20;16.60;99.90
63260;DHT22;49390;51.380;0.098;2023-07-16T00:23:50;16.60;99.90
63260;DHT22;49390;51.380;0.098;2023-07-16T00:26:18;16.70;99.90
63260;DHT22;49390;51.380;0.098;2023-07-16T00:28:46;16.70;99.90
63260;DHT22;49390;51.380;0.098;2023-07-16T00:31:14;16.70;99.90
63260;DHT22;49390;51.380;0.098;2023-07-16T00:33:42;16.70;99.90
63260;DHT22;49390;51.380;0.098;2023-07-16T00:36:10;16.70;99.90
63260;DHT22;49390;51.380;0.098;2023-07-16T00:38:39;16.70;99.90
63260;DHT22;49390;51.380;0.098;2023-07-16T00:41:10;16.70;99.90
63260;DHT22;49390;51.380;0.098;2023-07-16T00:43:38;16.70;99.90
63260;DHT22;49390;51.380;0.098;2023-07-16T00:46:07;16.70;99.90
63260;DHT22;49390;51.380;0.098;2023-07-16T00:48:36;16.60;99.90
63260;DHT22;49390;51.380;0.098;2023-07-16T00:51:04;16.60;99.90
63260;DHT22;49390;51.380;0.098;2023-07-16T00:53:35;16.60;99.90
63260;DHT22;49390;51.380;0.098;2023-07-16T00:56:03;16.60;99.90
63260;DHT22;49390;51.380;0.098;2023-07-16T00:58:32;16.60;99.90
63260;DHT22;49390;51.380;0.098;2023-07-16T01:01:01;16.60;99.90
63260;DHT22;49390;51.380;0.098;2023-07-16T01:03:30;16.50;99.90
63260;DHT22;49390;51.380;0.098;2023-07-16T01:06:51;16.50;99.90
63260;DHT22;49390;51.380;0.098;2023-07-16T01:09:04;16.40;99.90
63260;DHT22;49390;51.380;0.098;2023-07-16T01:11:35;16.40;99.90
63260;DHT22;49390;51.380;0.098;2023-07-16T01:16:33;16.40;99.90
63260;DHT22;49390;51.380;0.098;2023-07-16T01:19:01;16.40;99.90
63260;DHT22;49390;51.380;0.098;2023-07-16T01:21:35;16.40;99.90
63260;DHT22;49390;51.380;0.098;2023-07-16T01:29:54;16.40;99.90
63260;DHT22;49390;51.380;0.098;2023-07-16T01:32:24;16.40;99.90
63260;DHT22;49390;51.380;0.098;2023-07-16T01:34:52;16.40;99.90
63260;DHT22;49390;51.380;0.098;2023-07-16T01:37:21;16.40;99.90
63260;DHT22;49390;51.380;0.098;2023-07-16T01:39:49;16.50;99.90
63260;DHT22;49390;51.380;0.098;2023-07-16T01:42:17;16.40;99.90
63260;DHT22;49390;51.380;0.098;2023-07-16T01:44:45;16.40;99.90
63260;DHT22;49390;51.380;0.098;2023-07-16T01:49:56;16.40;99.90
63260;DHT22;49390;51.380;0.098;2023-07-16T01:52:24;16.30;99.90
63260;DHT22;49390;51.380;0.098;2023-07-16T01:54:52;16.30;99.90
63260;DHT22;49390;51.380;0.098;2023-07-16T01:57:21;16.40;99.90
63260;DHT22;49390;51.380;0.098;2023-07-16T01:59:49;16.40;99.90
63260;DHT22;49390;51.380;0.098;2023-07-16T02:02:17;16.30;99.90
63260;DHT22;49390;51.380;0.098;2023-07-16T02:04:46;16.30;99.90
63260;DHT22;49390;51.380;0.098;2023-07-16T02:07:13;16.30;99.90
63260;DHT22;49390;51.380;0.098;2023-07-16T02:09:44;16.30;99.90
63260;DHT22;49390;51.380;0.098;2023-07-16T02:12:12;16.30;99.90
63260;DHT22;49390;51.380;0.098;2023-07-16T02:14:41;16.20;99.90
63260;DHT22;49390;51.380;0.098;2023-07-16T02:17:09;16.20;99.90
63260;DHT22;49390;51.380;0.098;2023-07-16T02:19:37;16.20;99.90
63260;DHT22;49390;51.380;0.098;2023-07-16T02:22:05;16.20;99.90
63260;DHT22;49390;51.380;0.098;2023-07-16T02:24:33;16.20;99.90
63260;DHT22;49390;51.380;0.098;2023-07-16T02:27:01;16.20;99.90
63260;DHT22;49390;51.380;0.098;2023-07-16T02:29:31;16.20;99.90
63260;DHT22;49390;51.380;0.098;2023-07-16T02:31:59;16.10;99.90
63260;DHT22;49390;51.380;0.098;2023-07-16T02:34:27;16.10;99.90
63260;DHT22;49390;51.380;0.098;2023-07-16T02:36:55;16.10;99.90
63260;DHT22;49390;51.380;0.098;2023-07-16T02:39:24;16.10;99.90
63260;DHT22;49390;51.380;0.098;2023-07-16T02:41:51;16.10;99.90
63260;DHT22;49390;51.380;0.098;2023-07-16T02:44:20;16.00;99.90
63260;DHT22;49390;51.380;0.098;2023-07-16T02:46:47;16.00;99.90
63260;DHT22;49390;51.380;0.098;2023-07-16T02:49:15;16.00;99.90
63260;DHT22;49390;51.380;0.098;2023-07-16T02:51:46;16.00;99.90
63260;DHT22;49390;51.380;0.098;2023-07-16T02:54:14;15.90;99.90
63260;DHT22;49390;51.380;0.098;2023-07-16T02:56:42;15.90;99.90
63260;DHT22;49390;51.380;0.098;2023-07-16T02:59:12;15.90;99.90
63260;DHT22;49390;51.380;0.098;2023-07-16T03:01:40;15.90;99.90
63260;DHT22;49390;51.380;0.098;2023-07-16T03:04:09;15.90;99.90
63260;DHT22;49390;51.380;0.098;2023-07-16T03:06:37;15.90;99.90
63260;DHT22;49390;51.380;0.098;2023-07-16T03:09:05;15.90;99.90
63260;DHT22;49390;51.380;0.098;2023-07-16T03:11:33;15.90;99.90
63260;DHT22;49390;51.380;0.098;2023-07-16T03:14:01;15.90;99.90
63260;DHT22;49390;51.380;0.098;2023-07-16T03:16:29;15.90;99.90
63260;DHT22;49390;51.380;0.098;2023-07-16T03:18:57;15.80;99.90
63260;DHT22;49390;51.380;0.098;2023-07-16T03:21:29;15.80;99.90
63260;DHT22;49390;51.380;0.098;2023-07-16T03:23:58;15.80;99.90
63260;DHT22;49390;51.380;0.098;2023-07-16T03:26:26;15.80;99.90
63260;DHT22;49390;51.380;0.098;2023-07-16T03:28:54;15.80;99.90
63260;DHT22;49390;51.380;0.098;2023-07-16T03:31:23;15.80;99.90
63260;DHT22;49390;51.380;0.098;2023-07-16T03:33:51;15.80;99.90
63260;DHT22;49390;51.380;0.098;2023-07-16T03:36:20;15.80;99.90
63260;DHT22;49390;51.380;0.098;2023-07-16T03:38:50;15.70;99.90
63260;DHT22;49390;51.380;0.098;2023-07-16T03:41:18;15.70;99.90
63260;DHT22;49390;51.380;0.098;2023-07-16T03:43:47;15.70;99.90
63260;DHT22;49390;51.380;0.098;2023-07-16T03:46:18;15.70;99.90
63260;DHT22;49390;51.380;0.098;2023-07-16T03:48:46;15.70;99.90
63260;DHT22;49390;51.380;0.098;2023-07-16T03:51:14;15.60;99.90
63260;DHT22;49390;51.380;0.098;2023-07-16T03:53:43;15.60;99.90
63260;DHT22;49390;51.380;0.098;2023-07-16T03:56:10;15.60;99.90
63260;DHT22;49390;51.380;0.098;2023-07-16T03:58:39;15.60;99.90
63260;DHT22;49390;51.380;0.098;2023-07-16T04:01:08;15.60;99.90
63260;DHT22;49390;51.380;0.098;2023-07-16T04:03:36;15.50;99.90
63260;DHT22;49390;51.380;0.098;2023-07-16T04:06:07;15.50;99.90
63260;DHT22;49390;51.380;0.098;2023-07-16T04:08:37;15.50;99.90
63260;DHT22;49390;51.380;0.098;2023-07-16T04:11:06;15.50;99.90
63260;DHT22;49390;51.380;0.098;2023-07-16T04:13:34;15.50;99.90
63260;DHT22;49390;51.380;0.098;2023-07-16T04:16:02;15.50;99.90
63260;DHT22;49390;51.380;0.098;2023-07-16T04:18:31;15.40;99.90
63260;DHT22;49390;51.380;0.098;2023-07-16T04:20:59;15.40;99.90
63260;DHT22;49390;51.380;0.098;2023-07-16T04:23:29;15.40;99.90
63260;DHT22;49390;51.380;0.098;2023-07-16T04:26:00;15.40;99.90
63260;DHT22;49390;51.380;0.098;2023-07-16T04:28:28;15.40;99.90
63260;DHT22;49390;51.380;0.098;2023-07-16T04:30:56;15.40;99.90
63260;DHT22;49390;51.380;0.098;2023-07-16T04:33:24;15.40;99.90
63260;DHT22;49390;51.380;0.098;2023-07-16T04:35:52;15.40;99.90
63260;DHT22;49390;51.380;0.098;2023-07-16T04:38:20;15.40;99.90
63260;DHT22;49390;51.380;0.098;2023-07-16T04:40:48;15.40;99.90
63260;DHT22;49390;51.380;0.098;2023-07-16T04:43:16;15.40;99.90
63260;DHT22;49390;51.380;0.098;2023-07-16T04:45:44;15.40;99.90
63260;DHT22;49390;51.380;0.098;2023-07-16T04:48:14;15.40;99.90
63260;DHT22;49390;51.380;0.098;2023-07-16T04:50:42;15.40;99.90
63260;DHT22;49390;51.380;0.098;2023-07-16T04:53:10;15.30;99.90
63260;DHT22;49390;51.380;0.098;2023-07-16T04:55:39;15.30;99.90
63260;DHT22;49390;51.380;0.098;2023-07-16T04:58:07;15.30;99.90
63260;DHT22;49390;51.380;0.098;2023-07-16T05:00:35;15.30;99.90
63260;DHT22;49390;51.380;0.098;2023-07-16T05:03:03;15.30;99.90
63260;DHT22;49390;51.380;0.098;2023-07-16T05:05:31;15.40;99.90
63260;DHT22;49390;51.380;0.098;2023-07-16T05:08:02;15.40;99.90
63260;DHT22;49390;51.380;0.098;2023-07-16T05:10:30;15.40;99.90
63260;DHT22;49390;51.380;0.098;2023-07-16T05:12:58;15.40;99.90
63260;DHT22;49390;51.380;0.098;2023-07-16T05:15:26;15.40;99.90
63260;DHT22;49390;51.380;0.098;2023-07-16T05:17:54;15.40;99.90
63260;DHT22;49390;51.380;0.098;2023-07-16T05:20:25;15.40;99.90
63260;DHT22;49390;51.380;0.098;2023-07-16T05:22:53;15.40;99.90
63260;DHT22;49390;51.380;0.098;2023-07-16T05:25:21;15.40;99.90
63260;DHT22;49390;51.380;0.098;2023-07-16T05:27:49;15.40;99.90
63260;DHT22;49390;51.380;0.098;2023-07-16T05:30:17;15.50;99.90
63260;DHT22;49390;51.380;0.098;2023-07-16T05:32:45;15.50;99.90
63260;DHT22;49390;51.380;0.098;2023-07-16T05:35:13;15.50;99.90
63260;DHT22;49390;51.380;0.098;2023-07-16T05:37:41;15.60;99.90
63260;DHT22;49390;51.380;0.098;2023-07-16T05:40:09;15.60;99.90
63260;DHT22;49390;51.380;0.098;2023-07-16T05:42:37;15.60;99.90
63260;DHT22;49390;51.380;0.098;2023-07-16T05:45:08;15.60;99.90
63260;DHT22;49390;51.380;0.098;2023-07-16T05:47:36;15.60;99.90
63260;DHT22;49390;51.380;0.098;2023-07-16T05:50:07;15.60;99.90
63260;DHT22;49390;51.380;0.098;2023-07-16T05:52:35;15.70;99.90
63260;DHT22;49390;51.380;0.098;2023-07-16T05:55:03;15.70;99.90
63260;DHT22;49390;51.380;0.098;2023-07-16T05:57:31;15.70;99.90
63260;DHT22;49390;51.380;0.098;2023-07-16T05:59:59;15.70;99.90
63260;DHT22;49390;51.380;0.098;2023-07-16T06:02:38;15.70;99.90
63260;DHT22;49390;51.380;0.098;2023-07-16T06:05:07;15.80;99.90
63260;DHT22;49390;51.380;0.098;2023-07-16T06:07:35;15.80;99.90
63260;DHT22;49390;51.380;0.098;2023-07-16T06:10:03;15.90;99.90
63260;DHT22;49390;51.380;0.098;2023-07-16T06:12:31;15.90;99.90
63260;DHT22;49390;51.380;0.098;2023-07-16T06:15:01;16.00;99.90
63260;DHT22;49390;51.380;0.098;2023-07-16T06:17:30;16.00;99.90
63260;DHT22;49390;51.380;0.098;2023-07-16T06:19:58;16.00;99.90
63260;DHT22;49390;51.380;0.098;2023-07-16T06:22:26;16.10;99.90
63260;DHT22;49390;51.380;0.098;2023-07-16T06:24:54;16.10;99.90
63260;DHT22;49390;51.380;0.098;2023-07-16T06:27:22;16.20;99.90
63260;DHT22;49390;51.380;0.098;2023-07-16T06:29:50;16.20;99.90
63260;DHT22;49390;51.380;0.098;2023-07-16T06:32:18;16.30;99.90
63260;DHT22;49390;51.380;0.098;2023-07-16T06:34:46;16.30;99.90
63260;DHT22;49390;51.380;0.098;2023-07-16T06:37:14;16.40;99.90
63260;DHT22;49390;51.380;0.098;2023-07-16T06:39:42;16.50;99.90
63260;DHT22;49390;51.380;0.098;2023-07-16T06:42:10;16.50;99.90
63260;DHT22;49390;51.380;0.098;2023-07-16T06:44:39;16.50;99.90
63260;DHT22;49390;51.380;0.098;2023-07-16T06:47:07;16.60;99.90
63260;DHT22;49390;51.380;0.098;2023-07-16T06:49:35;16.70;99.90
63260;DHT22;49390;51.380;0.098;2023-07-16T06:52:04;16.80;99.90
63260;DHT22;49390;51.380;0.098;2023-07-16T06:54:32;17.00;99.90
63260;DHT22;49390;51.380;0.098;2023-07-16T06:57:00;17.40;99.90
63260;DHT22;49390;51.380;0.098;2023-07-16T06:59:28;17.80;99.90
63260;DHT22;49390;51.380;0.098;2023-07-16T07:01:57;18.20;99.90
63260;DHT22;49390;51.380;0.098;2023-07-16T07:04:27;18.60;99.90
63260;DHT22;49390;51.380;0.098;2023-07-16T07:06:55;19.00;99.90
63260;DHT22;49390;51.380;0.098;2023-07-16T07:09:25;19.30;99.90
63260;DHT22;49390;51.380;0.098;2023-07-16T07:11:53;19.50;97.70
63260;DHT22;49390;51.380;0.098;2023-07-16T07:14:21;19.70;95.10
63260;DHT22;49390;51.380;0.098;2023-07-16T07:16:49;19.90;94.80
63260;DHT22;49390;51.380;0.098;2023-07-16T07:19:17;20.30;93.70
63260;DHT22;49390;51.380;0.098;2023-07-16T07:21:45;20.60;92.60
63260;DHT22;49390;51.380;0.098;2023-07-16T07:24:13;20.80;90.80
63260;DHT22;49390;51.380;0.098;2023-07-16T07:26:41;21.00;87.50
63260;DHT22;49390;51.380;0.098;2023-07-16T07:29:09;21.10;83.80
63260;DHT22;49390;51.380;0.098;2023-07-16T07:31:37;21.20;82.10
63260;DHT22;49390;51.380;0.098;2023-07-16T07:34:07;21.30;80.20
63260;DHT22;49390;51.380;0.098;2023-07-16T07:36:35;21.40;77.90
63260;DHT22;49390;51.380;0.098;2023-07-16T07:39:04;21.50;76.90
63260;DHT22;49390;51.380;0.098;2023-07-16T07:41:32;21.90;76.50
63260;DHT22;49390;51.380;0.098;2023-07-16T07:44:00;22.20;74.00
63260;DHT22;49390;51.380;0.098;2023-07-16T07:46:28;22.30;72.60
63260;DHT22;49390;51.380;0.098;2023-07-16T07:48:56;22.40;71.70
63260;DHT22;49390;51.380;0.098;2023-07-16T07:51:24;22.50;71.70
63260;DHT22;49390;51.380;0.098;2023-07-16T07:53:52;22.60;70.80
63260;DHT22;49390;51.380;0.098;2023-07-16T07:56:20;22.90;69.80
63260;DHT22;49390;51.380;0.098;2023-07-16T07:58:48;23.10;68.90
63260;DHT22;49390;51.380;0.098;2023-07-16T08:01:16;23.30;67.50
63260;DHT22;49390;51.380;0.098;2023-07-16T08:03:44;23.50;66.40
63260;DHT22;49390;51.380;0.098;2023-07-16T08:06:12;23.70;65.10
63260;DHT22;49390;51.380;0.098;2023-07-16T08:08:41;23.80;63.00
63260;DHT22;49390;51.380;0.098;2023-07-16T08:11:09;23.90;62.10
63260;DHT22;49390;51.380;0.098;2023-07-16T08:13:37;23.90;61.00
63260;DHT22;49390;51.380;0.098;2023-07-16T08:16:05;23.90;60.50
63260;DHT22;49390;51.380;0.098;2023-07-16T08:18:33;23.80;60.50
63260;DHT22;49390;51.380;0.098;2023-07-16T08:21:01;23.90;60.30
63260;DHT22;49390;51.380;0.098;2023-07-16T08:23:29;23.90;59.80
63260;DHT22;49390;51.380;0.098;2023-07-16T08:25:57;23.80;59.90
63260;DHT22;49390;51.380;0.098;2023-07-16T08:28:25;23.60;59.20
63260;DHT22;49390;51.380;0.098;2023-07-16T08:30:53;23.20;59.50
63260;DHT22;49390;51.380;0.098;2023-07-16T08:33:21;22.90;60.20
63260;DHT22;49390;51.380;0.098;2023-07-16T08:35:50;22.70;61.20
63260;DHT22;49390;51.380;0.098;2023-07-16T08:38:20;22.60;60.40
63260;DHT22;49390;51.380;0.098;2023-07-16T08:40:48;22.40;60.70
63260;DHT22;49390;51.380;0.098;2023-07-16T08:43:19;22.30;61.20
63260;DHT22;49390;51.380;0.098;2023-07-16T08:45:49;22.20;61.40
63260;DHT22;49390;51.380;0.098;2023-07-16T08:48:17;22.20;61.30
63260;DHT22;49390;51.380;0.098;2023-07-16T08:50:49;22.10;60.90
63260;DHT22;49390;51.380;0.098;2023-07-16T08:53:17;22.20;60.40
63260;DHT22;49390;51.380;0.098;2023-07-16T08:55:47;22.40;59.80
63260;DHT22;49390;51.380;0.098;2023-07-16T08:58:19;22.70;59.00
63260;DHT22;49390;51.380;0.098;2023-07-16T09:03:03;23.10;57.60
63260;DHT22;49390;51.380;0.098;2023-07-16T09:05:32;23.40;57.20
63260;DHT22;49390;51.380;0.098;2023-07-16T09:08:07;23.70;56.80
63260;DHT22;49390;51.380;0.098;2023-07-16T09:10:36;24.20;55.60
63260;DHT22;49390;51.380;0.098;2023-07-16T09:13:04;24.30;54.00
63260;DHT22;49390;51.380;0.098;2023-07-16T09:15:32;24.50;53.10
63260;DHT22;49390;51.380;0.098;2023-07-16T09:18:01;24.40;52.60
63260;DHT22;49390;51.380;0.098;2023-07-16T09:20:30;24.50;52.40
63260;DHT22;49390;51.380;0.098;2023-07-16T09:22:59;24.60;52.50
63260;DHT22;49390;51.380;0.098;2023-07-16T09:25:28;24.70;52.10
63260;DHT22;49390;51.380;0.098;2023-07-16T09:28:02;24.90;51.50
63260;DHT22;49390;51.380;0.098;2023-07-16T09:30:34;25.10;50.80
63260;DHT22;49390;51.380;0.098;2023-07-16T09:33:13;25.10;49.80
63260;DHT22;49390;51.380;0.098;2023-07-16T09:35:41;25.10;49.70
63260;DHT22;49390;51.380;0.098;2023-07-16T09:38:10;25.10;48.90
63260;DHT22;49390;51.380;0.098;2023-07-16T09:40:39;25.10;48.70
63260;DHT22;49390;51.380;0.098;2023-07-16T09:43:12;25.10;48.70
63260;DHT22;49390;51.380;0.098;2023-07-16T09:45:43;25.10;48.40
63260;DHT22;49390;51.380;0.098;2023-07-16T09:48:13;25.10;48.10
63260;DHT22;49390;51.380;0.098;2023-07-16T09:50:50;25.10;48.10
63260;DHT22;49390;51.380;0.098;2023-07-16T09:53:20;25.00;47.80
63260;DHT22;49390;51.380;0.098;2023-07-16T09:55:49;24.80;47.90
63260;DHT22;49390;51.380;0.098;2023-07-16T09:58:20;24.60;48.00
63260;DHT22;49390;51.380;0.098;2023-07-16T10:00:51;24.40;48.10
63260;DHT22;49390;51.380;0.098;2023-07-16T10:03:19;24.30;48.40
63260;DHT22;49390;51.380;0.098;2023-07-16T10:05:47;24.20;48.30
63260;DHT22;49390;51.380;0.098;2023-07-16T10:08:19;24.30;48.50
63260;DHT22;49390;51.380;0.098;2023-07-16T10:10:52;24.30;48.60
63260;DHT22;49390;51.380;0.098;2023-07-16T10:13:23;24.30;48.60
63260;DHT22;49390;51.380;0.098;2023-07-16T10:15:58;24.20;48.30
63260;DHT22;49390;51.380;0.098;2023-07-16T10:18:30;24.00;48.50
63260;DHT22;49390;51.380;0.098;2023-07-16T10:21:08;23.80;48.90
63260;DHT22;49390;51.380;0.098;2023-07-16T10:23:43;23.70;49.70
63260;DHT22;49390;51.380;0.098;2023-07-16T10:26:14;23.50;50.10
63260;DHT22;49390;51.380;0.098;2023-07-16T10:28:46;23.30;50.60
63260;DHT22;49390;51.380;0.098;2023-07-16T10:31:23;23.20;51.30
63260;DHT22;49390;51.380;0.098;2023-07-16T10:34:01;23.10;52.00
63260;DHT22;49390;51.380;0.098;2023-07-16T10:36:38;23.00;53.00
63260;DHT22;49390;51.380;0.098;2023-07-16T10:39:06;23.10;53.80
63260;DHT22;49390;51.380;0.098;2023-07-16T10:41:34;23.20;54.10
63260;DHT22;49390;51.380;0.098;2023-07-16T10:44:03;23.20;54.20
63260;DHT22;49390;51.380;0.098;2023-07-16T10:46:33;23.10;54.60
63260;DHT22;49390;51.380;0.098;2023-07-16T10:49:02;23.20;54.20
63260;DHT22;49390;51.380;0.098;2023-07-16T10:51:30;23.30;53.90
63260;DHT22;49390;51.380;0.098;2023-07-16T10:53:58;23.40;53.50
63260;DHT22;49390;51.380;0.098;2023-07-16T10:56:26;23.50;53.40
63260;DHT22;49390;51.380;0.098;2023-07-16T10:58:56;23.50;53.40
63260;DHT22;49390;51.380;0.098;2023-07-16T11:01:29;23.60;53.40
63260;DHT22;49390;51.380;0.098;2023-07-16T11:04:00;23.60;53.80
63260;DHT22;49390;51.380;0.098;2023-07-16T11:06:29;23.50;54.00
63260;DHT22;49390;51.380;0.098;2023-07-16T11:09:06;23.50;54.00
63260;DHT22;49390;51.380;0.098;2023-07-16T11:11:34;23.40;54.00
63260;DHT22;49390;51.380;0.098;2023-07-16T11:14:06;23.40;54.40
63260;DHT22;49390;51.380;0.098;2023-07-16T11:16:36;23.40;55.00
63260;DHT22;49390;51.380;0.098;2023-07-16T11:19:05;23.50;54.10
63260;DHT22;49390;51.380;0.098;2023-07-16T11:21:34;23.40;53.60
63260;DHT22;49390;51.380;0.098;2023-07-16T11:24:14;23.30;53.90
63260;DHT22;49390;51.380;0.098;2023-07-16T11:26:52;23.30;54.10
63260;DHT22;49390;51.380;0.098;2023-07-16T11:29:20;23.50;54.50
63260;DHT22;49390;51.380;0.098;2023-07-16T11:31:52;23.60;54.50
63260;DHT22;49390;51.380;0.098;2023-07-16T11:34:20;23.70;54.30
63260;DHT22;49390;51.380;0.098;2023-07-16T11:36:50;23.70;53.70
63260;DHT22;49390;51.380;0.098;2023-07-16T11:39:18;23.50;53.90
63260;DHT22;49390;51.380;0.098;2023-07-16T11:41:56;23.40;54.40
63260;DHT22;49390;51.380;0.098;2023-07-16T11:44:32;23.40;54.50
63260;DHT22;49390;51.380;0.098;2023-07-16T11:47:01;23.40;53.70
63260;DHT22;49390;51.380;0.098;2023-07-16T11:49:30;23.50;53.20
63260;DHT22;49390;51.380;0.098;2023-07-16T11:51:58;23.60;53.10
63260;DHT22;49390;51.380;0.098;2023-07-16T11:54:26;23.70;53.30
63260;DHT22;49390;51.380;0.098;2023-07-16T11:56:55;23.90;53.50
63260;DHT22;49390;51.380;0.098;2023-07-16T11:59:22;24.00;53.40
63260;DHT22;49390;51.380;0.098;2023-07-16T12:01:51;24.10;52.90
63260;DHT22;49390;51.380;0.098;2023-07-16T12:04:19;24.10;52.70
63260;DHT22;49390;51.380;0.098;2023-07-16T12:06:47;24.10;52.60
63260;DHT22;49390;51.380;0.098;2023-07-16T12:09:15;24.20;52.50
63260;DHT22;49390;51.380;0.098;2023-07-16T12:11:43;24.30;52.00
63260;DHT22;49390;51.380;0.098;2023-07-16T12:16:26;24.40;50.40
63260;DHT22;49390;51.380;0.098;2023-07-16T12:18:55;24.50;50.50
63260;DHT22;49390;51.380;0.098;2023-07-16T12:21:23;24.30;50.50
63260;DHT22;49390;51.380;0.098;2023-07-16T12:23:51;24.30;51.10
63260;DHT22;49390;51.380;0.098;2023-07-16T12:26:19;24.20;51.00
63260;DHT22;49390;51.380;0.098;2023-07-16T12:28:47;24.20;51.10
63260;DHT22;49390;51.380;0.098;2023-07-16T12:31:15;24.30;50.70
63260;DHT22;49390;51.380;0.098;2023-07-16T12:33:46;24.40;50.00
63260;DHT22;49390;51.380;0.098;2023-07-16T12:36:16;24.40;49.70
63260;DHT22;49390;51.380;0.098;2023-07-16T12:38:47;24.40;49.50
63260;DHT22;49390;51.380;0.098;2023-07-16T12:41:15;24.30;48.90
63260;DHT22;49390;51.380;0.098;2023-07-16T12:43:44;24.30;48.60
63260;DHT22;49390;51.380;0.098;2023-07-16T12:46:12;24.30;47.60
63260;DHT22;49390;51.380;0.098;2023-07-16T12:48:40;24.20;47.90
63260;DHT22;49390;51.380;0.098;2023-07-16T12:51:09;24.10;48.20
63260;DHT22;49390;51.380;0.098;2023-07-16T12:53:37;24.10;48.40
63260;DHT22;49390;51.380;0.098;2023-07-16T12:56:06;24.00;48.70
63260;DHT22;49390;51.380;0.098;2023-07-16T12:58:34;23.90;49.00
63260;DHT22;49390;51.380;0.098;2023-07-16T13:01:02;23.70;49.30
63260;DHT22;49390;51.380;0.098;2023-07-16T13:03:30;23.50;50.10
63260;DHT22;49390;51.380;0.098;2023-07-16T13:05:58;23.30;50.60
63260;DHT22;49390;51.380;0.098;2023-07-16T13:08:26;23.20;51.20
63260;DHT22;49390;51.380;0.098;2023-07-16T13:10:54;23.20;51.80
63260;DHT22;49390;51.380;0.098;2023-07-16T13:13:23;23.20;52.30
63260;DHT22;49390;51.380;0.098;2023-07-16T13:15:50;23.30;52.60
63260;DHT22;49390;51.380;0.098;2023-07-16T13:18:19;23.40;52.70
63260;DHT22;49390;51.380;0.098;2023-07-16T13:20:47;23.50;53.20
63260;DHT22;49390;51.380;0.098;2023-07-16T13:23:15;23.50;53.70
63260;DHT22;49390;51.380;0.098;2023-07-16T13:25:43;23.40;53.40
63260;DHT22;49390;51.380;0.098;2023-07-16T13:28:11;23.40;53.30
63260;DHT22;49390;51.380;0.098;2023-07-16T13:30:39;23.40;53.50
63260;DHT22;49390;51.380;0.098;2023-07-16T13:33:07;23.40;53.00
63260;DHT22;49390;51.380;0.098;2023-07-16T13:35:35;23.30;52.80
63260;DHT22;49390;51.380;0.098;2023-07-16T13:38:03;23.20;52.90
63260;DHT22;49390;51.380;0.098;2023-07-16T13:40:31;23.10;53.00
63260;DHT22;49390;51.380;0.098;2023-07-16T13:42:59;23.10;53.40
63260;DHT22;49390;51.380;0.098;2023-07-16T13:45:27;23.10;53.70
63260;DHT22;49390;51.380;0.098;2023-07-16T13:47:55;23.20;53.80
63260;DHT22;49390;51.380;0.098;2023-07-16T13:50:23;23.40;53.50
63260;DHT22;49390;51.380;0.098;2023-07-16T13:52:54;23.50;53.00
63260;DHT22;49390;51.380;0.098;2023-07-16T13:55:24;23.60;52.60
63260;DHT22;49390;51.380;0.098;2023-07-16T13:57:53;23.70;52.50
63260;DHT22;49390;51.380;0.098;2023-07-16T14:00:21;23.70;52.00
63260;DHT22;49390;51.380;0.098;2023-07-16T14:02:49;23.70;51.90
63260;DHT22;49390;51.380;0.098;2023-07-16T14:05:17;23.60;51.40
63260;DHT22;49390;51.380;0.098;2023-07-16T14:07:47;23.60;51.00
63260;DHT22;49390;51.380;0.098;2023-07-16T14:10:15;23.60;51.20
63260;DHT22;49390;51.380;0.098;2023-07-16T14:12:44;23.60;50.90
63260;DHT22;49390;51.380;0.098;2023-07-16T14:15:12;23.60;51.30
63260;DHT22;49390;51.380;0.098;2023-07-16T14:17:40;23.50;51.70
63260;DHT22;49390;51.380;0.098;2023-07-16T14:20:09;23.50;51.90
63260;DHT22;49390;51.380;0.098;2023-07-16T14:22:38;23.50;51.80
63260;DHT22;49390;51.380;0.098;2023-07-16T14:25:06;23.60;51.70
63260;DHT22;49390;51.380;0.098;2023-07-16T14:27:35;23.70;51.70
63260;DHT22;49390;51.380;0.098;2023-07-16T14:30:03;23.70;51.50
63260;DHT22;49390;51.380;0.098;2023-07-16T14:32:37;23.90;51.50
63260;DHT22;49390;51.380;0.098;2023-07-16T14:35:06;24.00;51.30
63260;DHT22;49390;51.380;0.098;2023-07-16T14:37:52;24.00;51.10
63260;DHT22;49390;51.380;0.098;2023-07-16T14:40:20;24.00;50.70
63260;DHT22;49390;51.380;0.098;2023-07-16T14:42:48;24.00;50.40
63260;DHT22;49390;51.380;0.098;2023-07-16T14:45:16;23.90;50.20
63260;DHT22;49390;51.380;0.098;2023-07-16T14:47:45;23.70;50.10
63260;DHT22;49390;51.380;0.098;2023-07-16T14:50:13;23.70;50.00
63260;DHT22;49390;51.380;0.098;2023-07-16T14:52:42;23.70;49.60
63260;DHT22;49390;51.380;0.098;2023-07-16T14:55:10;23.60;49.90
63260;DHT22;49390;51.380;0.098;2023-07-16T14:57:38;23.60;50.30
63260;DHT22;49390;51.380;0.098;2023-07-16T15:00:07;23.70;50.50
63260;DHT22;49390;51.380;0.098;2023-07-16T15:02:39;23.70;50.90
63260;DHT22;49390;51.380;0.098;2023-07-16T15:05:09;23.70;51.00
63260;DHT22;49390;51.380;0.098;2023-07-16T15:07:37;23.70;50.60
63260;DHT22;49390;51.380;0.098;2023-07-16T15:10:09;23.70;50.30
63260;DHT22;49390;51.380;0.098;2023-07-16T15:12:37;23.70;49.30
63260;DHT22;49390;51.380;0.098;2023-07-16T15:15:05;23.60;49.50
63260;DHT22;49390;51.380;0.098;2023-07-16T15:17:33;23.60;49.10
63260;DHT22;49390;51.380;0.098;2023-07-16T15:20:02;23.60;48.70
63260;DHT22;49390;51.380;0.098;2023-07-16T15:22:32;23.60;48.50
63260;DHT22;49390;51.380;0.098;2023-07-16T15:25:01;23.60;47.30
63260;DHT22;49390;51.380;0.098;2023-07-16T15:27:32;23.50;47.70
63260;DHT22;49390;51.380;0.098;2023-07-16T15:30:00;23.50;47.80
63260;DHT22;49390;51.380;0.098;2023-07-16T15:32:28;23.60;48.50
63260;DHT22;49390;51.380;0.098;2023-07-16T15:34:56;23.70;47.50
63260;DHT22;49390;51.380;0.098;2023-07-16T15:37:30;23.70;47.00
63260;DHT22;49390;51.380;0.098;2023-07-16T15:39:58;23.70;47.00
63260;DHT22;49390;51.380;0.098;2023-07-16T15:42:27;23.70;47.20
63260;DHT22;49390;51.380;0.098;2023-07-16T15:44:55;23.60;47.40
63260;DHT22;49390;51.380;0.098;2023-07-16T15:47:23;23.60;47.60
63260;DHT22;49390;51.380;0.098;2023-07-16T15:49:51;23.60;47.70
63260;DHT22;49390;51.380;0.098;2023-07-16T15:52:19;23.60;47.60
63260;DHT22;49390;51.380;0.098;2023-07-16T15:54:47;23.50;47.50
63260;DHT22;49390;51.380;0.098;2023-07-16T15:57:15;23.50;47.30